createdAt,value
2022-09-17T00:01:33.216Z,1.15
2022-09-17T00:04:04.189Z,0.90
2022-09-17T00:06:34.041Z,0.80
2022-09-17T00:09:01.998Z,0.80
2022-09-17T00:11:32.703Z,0.98
2022-09-17T00:14:02.118Z,1.02
2022-09-17T00:16:37.286Z,1.60
2022-09-17T00:19:06.426Z,1.25
2022-09-17T00:21:33.932Z,1.20
2022-09-17T00:24:04.511Z,0.93
2022-09-17T00:26:33.339Z,1.48
2022-09-17T00:29:01.389Z,0.82
2022-09-17T00:31:30.262Z,1.15
2022-09-17T00:33:59.454Z,0.70
2022-09-17T00:36:27.060Z,0.82
2022-09-17T00:38:58.345Z,1.35
2022-09-17T00:41:28.770Z,0.77
2022-09-17T00:43:58.494Z,0.90
2022-09-17T00:46:35.217Z,0.90
2022-09-17T00:49:07.332Z,0.98
2022-09-17T00:51:41.348Z,0.65
2022-09-17T00:54:10.793Z,0.70
2022-09-17T00:56:41.553Z,0.80
2022-09-17T00:59:09.223Z,0.90
2022-09-17T01:01:37.261Z,0.80
2022-09-17T01:04:04.753Z,1.02
2022-09-17T01:06:45.410Z,0.82
2022-09-17T01:09:32.057Z,0.55
2022-09-17T01:12:36.732Z,0.70
2022-09-17T01:15:26.037Z,0.45
2022-09-17T01:18:05.260Z,0.70
2022-09-17T01:20:55.628Z,0.47
2022-09-17T01:23:44.581Z,0.70
2022-09-17T01:26:49.872Z,0.70
2022-09-17T01:29:38.073Z,1.17
2022-09-17T01:32:30.167Z,0.68
2022-09-17T01:35:01.515Z,0.40
2022-09-17T01:37:37.929Z,0.50
2022-09-17T01:40:27.584Z,0.40
2022-09-17T01:43:05.248Z,0.30
2022-09-17T01:45:49.759Z,0.50
2022-09-17T01:48:19.928Z,0.40
2022-09-17T01:50:57.094Z,0.55
2022-09-17T01:53:38.713Z,0.60
2022-09-17T01:56:09.472Z,0.57
2022-09-17T01:58:47.488Z,0.50
2022-09-17T02:01:20.504Z,0.52
2022-09-17T02:04:17.492Z,0.63
2022-09-17T02:06:50.497Z,0.65
2022-09-17T02:09:23.920Z,0.60
2022-09-17T02:11:59.676Z,0.45
2022-09-17T02:14:46.403Z,0.75
2022-09-17T02:17:22.397Z,0.43
2022-09-17T02:19:49.967Z,0.80
2022-09-17T02:22:34.430Z,0.68
2022-09-17T02:25:12.799Z,0.50
2022-09-17T02:27:49.603Z,0.45
2022-09-17T02:30:17.065Z,0.43
2022-09-17T02:32:44.732Z,0.40
2022-09-17T02:35:17.250Z,0.20
2022-09-17T02:37:44.983Z,0.50
2022-09-17T02:40:18.056Z,0.40
2022-09-17T02:43:06.331Z,0.40
2022-09-17T02:45:46.506Z,0.28
2022-09-17T02:48:38.287Z,0.40
2022-09-17T02:51:35.233Z,0.40
2022-09-17T02:54:35.090Z,0.38
2022-09-17T02:57:11.026Z,0.30
2022-09-17T02:59:59.800Z,0.30
2022-09-17T03:02:59.335Z,0.32
2022-09-17T03:05:28.927Z,0.30
2022-09-17T03:07:57.384Z,0.30
2022-09-17T03:10:25.196Z,0.35
2022-09-17T03:12:54.136Z,0.40
2022-09-17T03:15:21.621Z,0.43
2022-09-17T03:17:52.677Z,0.50
2022-09-17T03:20:21.002Z,0.70
2022-09-17T03:22:48.348Z,0.65
2022-09-17T03:25:15.815Z,0.93
2022-09-17T03:27:43.195Z,0.75
2022-09-17T03:30:10.854Z,0.70
2022-09-17T03:32:38.258Z,0.70
2022-09-17T03:35:05.767Z,0.65
2022-09-17T03:37:33.371Z,0.32
2022-09-17T03:40:00.827Z,0.20
2022-09-17T03:42:28.348Z,0.30
2022-09-17T03:44:55.766Z,0.40
2022-09-17T03:47:23.175Z,0.32
2022-09-17T03:49:52.246Z,0.17
2022-09-17T03:52:19.644Z,0.70
2022-09-17T03:54:47.207Z,0.20
2022-09-17T03:57:14.719Z,0.00
2022-09-17T03:59:42.320Z,0.25
2022-09-17T04:02:09.797Z,0.30
2022-09-17T04:04:37.183Z,0.20
2022-09-17T04:07:04.996Z,0.38
2022-09-17T04:09:33.402Z,0.22
2022-09-17T04:12:03.174Z,0.30
2022-09-17T04:14:31.014Z,0.25
2022-09-17T04:16:59.207Z,0.60
2022-09-17T04:19:26.614Z,0.47
2022-09-17T04:21:54.109Z,0.30
2022-09-17T04:24:22.563Z,0.32
2022-09-17T04:26:50.390Z,0.70
2022-09-17T04:29:17.783Z,7.43
2022-09-17T04:31:45.207Z,0.77
2022-09-17T04:34:12.586Z,0.30
2022-09-17T04:36:39.945Z,0.50
2022-09-17T04:39:07.334Z,0.50
2022-09-17T04:41:34.890Z,0.30
2022-09-17T04:44:02.425Z,0.47
2022-09-17T04:46:29.942Z,0.50
2022-09-17T04:48:57.611Z,0.40
2022-09-17T04:51:25.038Z,0.45
2022-09-17T04:53:52.638Z,0.20
2022-09-17T04:56:20.459Z,0.20
2022-09-17T04:58:47.927Z,0.75
2022-09-17T05:01:18.644Z,0.60
2022-09-17T05:03:46.359Z,0.40
2022-09-17T05:06:13.902Z,0.70
2022-09-17T05:08:41.367Z,0.47
2022-09-17T05:11:08.752Z,0.65
2022-09-17T05:13:36.133Z,0.38
2022-09-17T05:16:03.639Z,0.45
2022-09-17T05:18:31.526Z,0.40
2022-09-17T05:20:58.889Z,0.20
2022-09-17T05:23:26.373Z,0.30
2022-09-17T05:25:57.622Z,0.30
2022-09-17T05:28:25.047Z,0.40
2022-09-17T05:30:52.478Z,0.40
2022-09-17T05:33:20.363Z,0.30
2022-09-17T05:35:47.808Z,0.35
2022-09-17T05:38:15.178Z,0.65
2022-09-17T05:40:42.590Z,0.55
2022-09-17T05:43:10.473Z,0.40
2022-09-17T05:45:38.626Z,0.43
2022-09-17T05:48:09.721Z,0.50
2022-09-17T05:50:37.121Z,0.50
2022-09-17T05:53:10.564Z,0.50
2022-09-17T05:55:38.313Z,0.55
2022-09-17T05:58:14.249Z,0.30
2022-09-17T06:00:42.641Z,0.47
2022-09-17T06:03:14.900Z,0.38
2022-09-17T06:05:42.990Z,0.70
2022-09-17T06:08:10.898Z,0.30
2022-09-17T06:10:39.934Z,0.35
2022-09-17T06:13:07.403Z,0.30
2022-09-17T06:15:34.827Z,0.43
2022-09-17T06:18:02.196Z,0.35
2022-09-17T06:20:29.584Z,0.40
2022-09-17T06:22:59.939Z,0.40
2022-09-17T06:25:27.387Z,0.60
2022-09-17T06:27:54.763Z,0.30
2022-09-17T06:30:22.151Z,0.88
2022-09-17T06:32:50.091Z,0.55
2022-09-17T06:35:20.505Z,0.77
2022-09-17T06:37:48.542Z,0.93
2022-09-17T06:40:16.014Z,1.20
2022-09-17T06:42:43.420Z,1.60
2022-09-17T06:45:14.571Z,0.50
2022-09-17T06:47:44.130Z,0.50
2022-09-17T06:50:11.528Z,0.80
2022-09-17T06:52:38.961Z,0.70
2022-09-17T06:55:06.570Z,0.55
2022-09-17T06:57:33.977Z,0.50
2022-09-17T07:00:01.408Z,0.50
2022-09-17T07:02:28.931Z,0.60
2022-09-17T07:04:56.373Z,0.60
2022-09-17T07:07:23.764Z,0.45
2022-09-17T07:09:51.193Z,1.00
2022-09-17T07:12:18.570Z,0.77
2022-09-17T07:14:47.646Z,0.70
2022-09-17T07:17:15.711Z,0.80
2022-09-17T07:19:43.087Z,1.02
2022-09-17T07:22:10.453Z,1.23
2022-09-17T07:24:37.951Z,0.52
2022-09-17T07:27:05.521Z,0.57
2022-09-17T07:29:32.922Z,0.52
2022-09-17T07:32:00.714Z,0.57
2022-09-17T07:34:29.128Z,0.38
2022-09-17T07:36:56.521Z,0.50
2022-09-17T07:39:23.924Z,0.57
2022-09-17T07:41:51.586Z,0.57
2022-09-17T07:44:19.107Z,0.50
2022-09-17T07:46:46.543Z,0.63
2022-09-17T07:49:13.999Z,0.70
2022-09-17T07:51:41.370Z,0.43
2022-09-17T07:54:08.847Z,0.47
2022-09-17T07:56:36.271Z,0.55
2022-09-17T07:59:04.127Z,0.63
2022-09-17T08:01:36.485Z,0.52
2022-09-17T08:04:04.315Z,0.50
2022-09-17T08:06:32.110Z,0.50
2022-09-17T08:09:00.322Z,0.40
2022-09-17T08:11:52.217Z,0.25
2022-09-17T08:14:17.283Z,0.68
2022-09-17T08:16:47.088Z,0.70
2022-09-17T08:19:14.626Z,0.63
2022-09-17T08:21:42.009Z,0.60
2022-09-17T08:24:09.748Z,0.40
2022-09-17T08:26:37.206Z,0.50
2022-09-17T08:29:05.486Z,0.60
2022-09-17T08:31:33.515Z,0.43
2022-09-17T08:34:01.414Z,0.93
2022-09-17T08:36:28.905Z,0.43
2022-09-17T08:38:56.785Z,0.30
2022-09-17T08:41:42.909Z,0.38
2022-09-17T08:44:30.457Z,0.30
2022-09-17T08:47:01.404Z,0.20
2022-09-17T08:49:45.136Z,0.20
2022-09-17T08:52:54.702Z,0.30
2022-09-17T08:55:44.616Z,0.20
2022-09-17T08:58:39.869Z,0.30
2022-09-17T09:01:16.309Z,0.20
2022-09-17T09:04:21.734Z,1.80
2022-09-17T09:07:24.087Z,3.25
2022-09-17T09:10:11.798Z,1.00
2022-09-17T09:12:40.296Z,0.77
2022-09-17T09:15:42.396Z,0.93
2022-09-17T09:18:23.546Z,1.10
2022-09-17T09:21:04.087Z,0.93
2022-09-17T09:23:58.979Z,1.05
2022-09-17T09:26:45.976Z,1.42
2022-09-17T09:29:41.173Z,1.10
2022-09-17T09:32:16.413Z,1.23
2022-09-17T09:34:46.395Z,1.40
2022-09-17T09:37:18.048Z,1.20
2022-09-17T09:39:48.108Z,0.70
2022-09-17T09:42:23.870Z,0.43
2022-09-17T09:44:51.334Z,0.75
2022-09-17T09:47:45.242Z,0.70
2022-09-17T09:50:21.657Z,1.58
2022-09-17T09:52:58.692Z,1.10
2022-09-17T09:55:51.130Z,0.60
2022-09-17T09:58:30.626Z,0.52
2022-09-17T10:00:58.381Z,0.50
2022-09-17T10:03:32.375Z,0.73
2022-09-17T10:06:03.046Z,0.63
2022-09-17T10:08:36.071Z,0.50
2022-09-17T10:11:06.665Z,0.60
2022-09-17T10:13:36.555Z,0.65
2022-09-17T10:16:25.318Z,0.93
2022-09-17T10:19:08.113Z,0.45
2022-09-17T10:21:43.265Z,0.70
2022-09-17T10:24:32.214Z,0.68
2022-09-17T10:27:15.525Z,0.70
2022-09-17T10:32:20.852Z,0.50
2022-09-17T10:35:05.793Z,0.90
2022-09-17T10:37:50.464Z,0.80
2022-09-17T10:40:20.667Z,0.70
2022-09-17T10:42:49.724Z,0.80
2022-09-17T10:45:31.565Z,0.80
2022-09-17T10:48:00.412Z,0.80
2022-09-17T10:50:30.923Z,0.63
2022-09-17T10:53:03.310Z,0.75
2022-09-17T10:58:09.263Z,1.10
2022-09-17T11:00:47.984Z,0.90
2022-09-17T11:03:18.386Z,0.80
2022-09-17T11:06:00.503Z,1.15
2022-09-17T11:08:48.710Z,1.00
2022-09-17T11:11:46.937Z,0.73
2022-09-17T11:14:26.238Z,1.02
2022-09-17T11:17:08.842Z,1.27
2022-09-17T11:22:27.862Z,0.98
2022-09-17T11:25:19.279Z,1.05
2022-09-17T11:28:22.127Z,1.20
2022-09-17T11:30:56.978Z,1.23
2022-09-17T11:33:45.462Z,1.15
2022-09-17T11:36:41.947Z,1.20
2022-09-17T11:39:21.669Z,0.88
2022-09-17T11:41:52.391Z,1.08
2022-09-17T11:44:57.229Z,0.90
2022-09-17T11:47:29.887Z,1.20
2022-09-17T11:50:19.337Z,1.02
2022-09-17T11:53:00.765Z,0.80
2022-09-17T11:55:35.570Z,1.00
2022-09-17T11:58:37.677Z,0.65
2022-09-17T12:01:10.897Z,0.80
2022-09-17T12:03:48.998Z,1.17
2022-09-17T12:06:22.615Z,1.50
2022-09-17T12:09:20.505Z,1.13
2022-09-17T12:12:31.877Z,0.90
2022-09-17T12:17:46.899Z,0.80
2022-09-17T12:20:32.800Z,1.10
2022-09-17T12:23:06.846Z,0.80
2022-09-17T12:25:49.446Z,0.90
2022-09-17T12:31:20.537Z,0.80
2022-09-17T12:33:57.176Z,0.80
2022-09-17T12:36:56.227Z,0.70
2022-09-17T12:39:26.369Z,0.60
2022-09-17T12:41:59.593Z,0.70
2022-09-17T12:45:08.472Z,1.35
2022-09-17T12:47:56.750Z,0.70
2022-09-17T12:50:33.918Z,0.60
2022-09-17T12:53:16.876Z,0.77
2022-09-17T12:58:23.038Z,0.70
2022-09-17T13:00:59.932Z,0.90
2022-09-17T13:04:06.551Z,0.70
2022-09-17T13:07:08.375Z,1.08
2022-09-17T13:09:58.147Z,0.90
2022-09-17T13:12:26.663Z,1.02
2022-09-17T13:15:24.462Z,0.70
2022-09-17T13:18:28.080Z,0.80
2022-09-17T13:21:09.320Z,0.70
2022-09-17T13:23:48.004Z,0.70
2022-09-17T13:26:19.202Z,0.73
2022-09-17T13:28:48.234Z,0.80
2022-09-17T13:31:51.680Z,0.80
2022-09-17T13:34:19.101Z,1.80
2022-09-17T13:36:48.665Z,1.40
2022-09-17T13:39:36.303Z,0.70
2022-09-17T13:42:43.798Z,0.60
2022-09-17T13:45:16.399Z,1.00
2022-09-17T13:47:51.151Z,0.70
2022-09-17T13:50:36.369Z,0.70
2022-09-17T13:53:15.785Z,0.63
2022-09-17T13:55:54.875Z,0.73
2022-09-17T13:58:27.161Z,0.80
2022-09-17T14:00:59.285Z,0.60
2022-09-17T14:03:37.079Z,0.80
2022-09-17T14:06:21.142Z,0.70
2022-09-17T14:08:50.271Z,0.50
2022-09-17T14:11:24.060Z,0.63
2022-09-17T14:13:53.359Z,0.50
2022-09-17T14:16:26.620Z,0.60
2022-09-17T14:19:22.857Z,0.60
2022-09-17T14:22:01.876Z,0.70
2022-09-17T14:24:40.180Z,0.60
2022-09-17T14:27:27.993Z,0.60
2022-09-17T14:30:13.485Z,0.50
2022-09-17T14:32:50.632Z,0.70
2022-09-17T14:35:37.007Z,0.40
2022-09-17T14:38:19.387Z,1.58
2022-09-17T14:41:00.003Z,1.10
2022-09-17T14:43:45.370Z,0.50
2022-09-17T14:46:40.856Z,0.70
2022-09-17T14:49:24.518Z,0.77
2022-09-17T14:51:56.529Z,0.50
2022-09-17T14:54:30.298Z,0.88
2022-09-17T14:57:02.138Z,0.47
2022-09-17T14:59:49.697Z,0.70
2022-09-17T15:02:28.229Z,0.80
2022-09-17T15:04:56.247Z,0.80
2022-09-17T15:07:24.530Z,0.77
2022-09-17T15:09:55.201Z,0.73
2022-09-17T15:12:29.829Z,0.60
2022-09-17T15:14:58.157Z,0.60
2022-09-17T15:17:25.775Z,0.70
2022-09-17T15:19:58.668Z,0.77
2022-09-17T15:22:29.978Z,0.95
2022-09-17T15:25:02.446Z,1.20
2022-09-17T15:27:36.322Z,0.80
2022-09-17T15:30:13.850Z,1.17
2022-09-17T15:32:54.084Z,1.52
2022-09-17T15:35:33.106Z,0.90
2022-09-17T15:38:22.164Z,0.95
2022-09-17T15:40:51.680Z,1.10
2022-09-17T15:43:31.608Z,0.70
2022-09-17T15:46:21.645Z,1.02
2022-09-17T15:48:49.165Z,1.00
2022-09-17T15:51:31.365Z,1.50
2022-09-17T15:54:06.761Z,1.13
2022-09-17T15:56:42.409Z,0.75
2022-09-17T15:59:45.056Z,1.05
2022-09-17T16:02:29.915Z,0.98
2022-09-17T16:05:16.661Z,0.90
2022-09-17T16:07:45.445Z,1.00
2022-09-17T16:10:15.302Z,0.98
2022-09-17T16:12:42.802Z,1.20
2022-09-17T16:15:12.744Z,0.85
2022-09-17T16:17:45.553Z,1.20
2022-09-17T16:20:24.758Z,1.10
2022-09-17T16:22:53.555Z,0.95
2022-09-17T16:28:34.715Z,1.42
2022-09-17T16:31:02.371Z,2.15
2022-09-17T16:33:29.820Z,1.92
2022-09-17T16:35:58.611Z,1.52
2022-09-17T16:38:26.474Z,1.10
2022-09-17T16:40:53.855Z,1.30
2022-09-17T16:43:21.404Z,1.10
2022-09-17T16:46:02.965Z,1.15
2022-09-17T16:48:31.051Z,1.05
2022-09-17T16:50:58.738Z,1.23
2022-09-17T16:53:26.111Z,1.05
2022-09-17T16:55:53.762Z,1.45
2022-09-17T16:58:21.175Z,1.25
2022-09-17T17:00:48.570Z,1.10
2022-09-17T17:03:16.065Z,1.30
2022-09-17T17:05:43.614Z,1.50
2022-09-17T17:08:11.053Z,2.47
2022-09-17T17:10:39.262Z,3.63
2022-09-17T17:13:06.750Z,1.48
2022-09-17T17:15:34.147Z,1.17
2022-09-17T17:18:01.502Z,1.25
2022-09-17T17:20:29.482Z,1.42
2022-09-17T17:22:56.872Z,1.88
2022-09-17T17:25:24.222Z,1.38
2022-09-17T17:27:51.601Z,1.30
2022-09-17T17:30:19.291Z,2.20
2022-09-17T17:32:51.144Z,1.83
2022-09-17T17:35:20.079Z,2.05
2022-09-17T17:37:48.600Z,2.28
2022-09-17T17:40:16.143Z,1.70
2022-09-17T17:42:44.310Z,2.17
2022-09-17T17:45:11.769Z,1.98
2022-09-17T17:47:39.291Z,2.47
2022-09-17T17:50:07.399Z,2.33
2022-09-17T17:52:36.446Z,2.20
2022-09-17T17:55:04.149Z,2.20
2022-09-17T17:57:31.530Z,2.60
2022-09-17T17:59:58.928Z,2.25
2022-09-17T18:02:26.523Z,2.30
2022-09-17T18:04:54.009Z,2.20
2022-09-17T18:07:21.366Z,2.17
2022-09-17T18:09:48.795Z,3.20
2022-09-17T18:12:16.207Z,3.55
2022-09-17T18:14:43.653Z,2.70
2022-09-17T18:17:11.082Z,2.90
2022-09-17T18:19:38.440Z,3.38
2022-09-17T18:22:05.865Z,2.15
2022-09-17T18:24:33.234Z,2.53
2022-09-17T18:27:00.615Z,2.35
2022-09-17T18:29:29.195Z,2.17
2022-09-17T18:31:56.616Z,2.30
2022-09-17T18:34:24.258Z,2.38
2022-09-17T18:36:52.550Z,2.22
2022-09-17T18:39:56.754Z,2.38
2022-09-17T18:42:09.150Z,4.07
2022-09-17T18:44:36.553Z,4.55
2022-09-17T18:47:03.983Z,4.20
2022-09-17T18:49:31.466Z,3.95
2022-09-17T18:51:58.822Z,3.97
2022-09-17T18:54:26.196Z,5.30
2022-09-17T18:56:53.545Z,3.75
2022-09-17T18:59:20.947Z,4.93
2022-09-17T19:01:49.024Z,7.53
2022-09-17T19:04:17.667Z,9.32
2022-09-17T19:06:45.322Z,10.52
2022-09-17T19:09:12.767Z,4.47
2022-09-17T19:11:40.264Z,3.47
2022-09-17T19:14:10.122Z,4.00
2022-09-17T19:16:37.545Z,3.28
2022-09-17T19:19:04.980Z,3.30
2022-09-17T19:21:32.383Z,4.20
2022-09-17T19:23:59.853Z,3.22
2022-09-17T19:26:27.653Z,3.50
2022-09-17T19:28:57.818Z,2.45
2022-09-17T19:31:26.309Z,2.60
2022-09-17T19:33:54.050Z,2.63
2022-09-17T19:36:21.776Z,2.30
2022-09-17T19:38:49.811Z,2.58
2022-09-17T19:41:19.989Z,2.95
2022-09-17T19:43:47.955Z,3.15
2022-09-17T19:46:18.443Z,3.28
2022-09-17T19:48:55.966Z,3.53
2022-09-17T19:51:25.880Z,3.45
2022-09-17T19:53:53.332Z,3.22
2022-09-17T19:56:23.904Z,29.55
2022-09-17T19:58:51.947Z,5.50
2022-09-17T20:01:20.300Z,3.53
2022-09-17T20:03:48.423Z,3.35
2022-09-17T20:06:17.828Z,3.30
2022-09-17T20:08:47.342Z,3.58
2022-09-17T20:11:15.756Z,3.45
2022-09-17T20:13:43.345Z,3.70
2022-09-17T20:16:16.990Z,2.70
2022-09-17T20:18:44.717Z,2.90
2022-09-17T20:21:24.699Z,2.83
2022-09-17T20:23:52.407Z,2.95
2022-09-17T20:26:20.162Z,3.33
2022-09-17T20:28:49.379Z,3.13
2022-09-17T20:31:22.925Z,3.10
2022-09-17T20:33:58.974Z,3.30
2022-09-17T20:36:30.993Z,3.50
2022-09-17T20:39:22.824Z,3.03
2022-09-17T20:41:45.966Z,3.47
2022-09-17T20:44:13.550Z,4.20
2022-09-17T20:46:41.079Z,4.03
2022-09-17T20:49:08.675Z,3.65
2022-09-17T20:51:36.045Z,3.80
2022-09-17T20:54:04.123Z,4.00
2022-09-17T20:56:34.042Z,4.30
2022-09-17T20:59:18.794Z,3.75
2022-09-17T21:01:49.648Z,4.15
2022-09-17T21:04:19.904Z,5.00
2022-09-17T21:06:50.614Z,5.95
2022-09-17T21:09:18.009Z,4.13
2022-09-17T21:11:47.055Z,4.05
2022-09-17T21:14:18.293Z,3.95
2022-09-17T21:16:46.486Z,3.38
2022-09-17T21:19:16.027Z,3.63
2022-09-17T21:21:44.228Z,3.25
2022-09-17T21:24:12.326Z,3.58
2022-09-17T21:26:39.815Z,3.38
2022-09-17T21:29:07.245Z,3.28
2022-09-17T21:31:37.054Z,3.40
2022-09-17T21:34:07.062Z,3.20
2022-09-17T21:36:37.072Z,3.17
2022-09-17T21:39:07.961Z,3.53
2022-09-17T21:41:39.869Z,3.90
2022-09-17T21:44:11.629Z,3.67
2022-09-17T21:46:40.233Z,3.67
2022-09-17T21:49:08.135Z,6.55
2022-09-17T21:51:39.172Z,3.70
2022-09-17T21:54:09.140Z,2.88
2022-09-17T21:56:37.080Z,3.30
2022-09-17T21:59:06.829Z,3.28
2022-09-17T22:01:39.670Z,3.13
2022-09-17T22:04:09.238Z,3.17
2022-09-17T22:06:38.008Z,3.22
2022-09-17T22:09:07.079Z,3.25
2022-09-17T22:11:36.725Z,3.15
2022-09-17T22:14:10.786Z,3.05
2022-09-17T22:16:41.385Z,3.22
2022-09-17T22:19:09.852Z,3.38
2022-09-17T22:21:40.306Z,3.45
2022-09-17T22:24:09.734Z,3.25
2022-09-17T22:26:40.401Z,3.20
2022-09-17T22:29:11.651Z,3.38
2022-09-17T22:31:39.304Z,3.25
2022-09-17T22:34:15.296Z,3.20
2022-09-17T22:36:43.071Z,3.22
2022-09-17T22:39:11.086Z,3.25
2022-09-17T22:41:45.683Z,4.05
2022-09-17T22:44:18.612Z,5.05
2022-09-17T22:46:48.111Z,6.03
2022-09-17T22:49:16.123Z,5.07
2022-09-17T22:51:44.909Z,5.25
2022-09-17T22:54:17.294Z,4.95
2022-09-17T22:59:12.500Z,3.67
2022-09-17T23:01:41.301Z,3.30
2022-09-17T23:04:09.098Z,2.75
2022-09-17T23:06:38.701Z,3.78
2022-09-17T23:09:06.894Z,3.45
2022-09-17T23:11:36.890Z,3.17
2022-09-17T23:14:07.501Z,4.13
2022-09-17T23:16:43.601Z,4.03
2022-09-17T23:19:12.004Z,2.92
2022-09-17T23:21:39.766Z,3.45
2022-09-17T23:24:07.833Z,3.97
2022-09-17T23:26:35.665Z,3.88
2022-09-17T23:29:05.324Z,3.95
2022-09-17T23:31:35.455Z,4.68
2022-09-17T23:34:04.552Z,4.25
2022-09-17T23:36:35.303Z,3.90
2022-09-17T23:39:04.221Z,3.92
2022-09-17T23:41:34.292Z,3.65
2022-09-17T23:44:03.586Z,3.90
2022-09-17T23:46:33.501Z,4.30
2022-09-17T23:49:01.903Z,4.25
2022-09-17T23:51:33.614Z,4.20
2022-09-17T23:54:01.169Z,5.05
2022-09-17T23:56:29.251Z,4.63
2022-09-17T23:58:59.399Z,4.03
